Time;durP1;ratioP1;P1;durP2;ratioP2;P2;SDS_P1;SDS_P2;PMS_P1;PMS_P2;Temp;Humidity;BMP_temperature;BMP_pressure;BME280_temperature;BME280_humidity;BME280_pressure;Samples;Min_cycle;Max_cycle;Signal;HPM_P1;HPM_P2
2021/03/03 00:00:05;;;;;;;39.43;26.87;;;5.90;99.90;;;;;;5095008;28;20178;-53
2021/03/03 00:02:30;;;;;;;38.03;25.10;;;5.80;99.90;;;;;;5096916;28;20230;-47
2021/03/03 00:04:56;;;;;;;38.23;25.53;;;5.90;99.90;;;;;;5082022;28;20194;-47
2021/03/03 00:07:21;;;;;;;35.60;24.27;;;5.70;99.90;;;;;;5076681;28;20262;-47
2021/03/03 00:09:47;;;;;;;39.40;26.43;;;5.70;99.90;;;;;;5077283;28;20257;-48
2021/03/03 00:12:13;;;;;;;37.93;25.47;;;5.70;99.90;;;;;;5076330;28;20214;-49
2021/03/03 00:14:38;;;;;;;37.97;25.13;;;5.60;99.90;;;;;;5086649;28;20599;-50
2021/03/03 00:17:04;;;;;;;34.17;23.83;;;5.60;99.90;;;;;;5096748;28;20204;-54
2021/03/03 00:19:29;;;;;;;30.50;21.70;;;5.60;99.90;;;;;;5094765;28;20201;-48
2021/03/03 00:21:55;;;;;;;30.20;21.73;;;5.60;99.90;;;;;;5095735;28;20170;-47
2021/03/03 00:24:20;;;;;;;29.83;21.77;;;5.50;99.90;;;;;;5088149;28;20170;-47
2021/03/03 00:26:46;;;;;;;31.73;23.00;;;5.50;99.90;;;;;;5076279;28;20534;-52
2021/03/03 00:29:11;;;;;;;35.03;22.97;;;5.40;99.90;;;;;;5081019;28;20637;-48
2021/03/03 00:31:37;;;;;;;32.83;22.60;;;5.40;99.90;;;;;;5096203;28;20224;-53
2021/03/03 00:34:02;;;;;;;35.03;23.53;;;5.40;99.90;;;;;;5092886;28;20224;-48
2021/03/03 00:36:28;;;;;;;33.97;22.30;;;5.40;99.90;;;;;;5075557;28;20259;-49
2021/03/03 00:38:54;;;;;;;33.67;22.70;;;5.20;99.90;;;;;;5076826;28;20170;-47
2021/03/03 00:41:19;;;;;;;31.83;22.93;;;5.10;99.90;;;;;;5095888;28;20218;-49
2021/03/03 00:43:45;;;;;;;33.37;23.50;;;5.20;99.90;;;;;;5077205;28;20175;-46
2021/03/03 00:46:11;;;;;;;32.43;22.33;;;5.10;99.90;;;;;;5075960;28;20500;-49
2021/03/03 00:48:37;;;;;;;33.23;22.23;;;5.00;99.90;;;;;;5092815;28;20192;-49
2021/03/03 00:51:03;;;;;;;32.50;22.83;;;5.00;99.90;;;;;;5096361;28;20177;-53
2021/03/03 00:53:29;;;;;;;35.40;24.77;;;5.00;99.90;;;;;;5095180;28;20178;-54
2021/03/03 00:55:54;;;;;;;35.07;24.17;;;4.90;99.90;;;;;;5095625;28;20204;-51
2021/03/03 00:58:20;;;;;;;40.30;26.53;;;4.90;99.90;;;;;;5081846;28;20260;-49
2021/03/03 01:00:47;;;;;;;38.97;27.43;;;4.80;99.90;;;;;;5075411;28;20287;-51
2021/03/03 01:03:13;;;;;;;40.77;27.10;;;4.80;99.90;;;;;;5076625;28;20182;-47
2021/03/03 01:05:41;;;;;;;41.47;28.53;;;4.80;99.90;;;;;;5075030;28;20665;-51
2021/03/03 01:08:07;;;;;;;40.13;26.53;;;4.80;99.90;;;;;;5076700;28;20191;-51
2021/03/03 01:10:32;;;;;;;41.53;27.30;;;4.80;99.90;;;;;;5093145;28;20197;-51
2021/03/03 01:12:58;;;;;;;39.60;25.87;;;4.80;99.90;;;;;;5084609;28;20182;-49
2021/03/03 01:15:24;;;;;;;39.97;27.83;;;4.80;99.90;;;;;;5074924;28;20288;-47
2021/03/03 01:17:50;;;;;;;41.20;28.70;;;4.80;99.90;;;;;;5082001;28;20236;-48
2021/03/03 01:20:15;;;;;;;41.17;27.80;;;4.80;99.90;;;;;;5095853;28;20738;-48
2021/03/03 01:22:41;;;;;;;40.63;27.87;;;4.70;99.90;;;;;;5089444;28;20210;-47
2021/03/03 01:25:07;;;;;;;41.60;27.90;;;4.60;99.90;;;;;;5075825;28;20627;-47
2021/03/03 01:27:33;;;;;;;42.67;27.73;;;4.50;99.90;;;;;;5094661;28;20182;-53
2021/03/03 01:29:58;;;;;;;39.20;26.50;;;4.50;99.90;;;;;;5093235;28;20514;-48
2021/03/03 01:32:24;;;;;;;44.30;28.33;;;4.60;99.90;;;;;;5074668;28;20190;-47
2021/03/03 01:34:49;;;;;;;40.37;28.63;;;4.60;99.90;;;;;;5074682;28;20546;-50
2021/03/03 01:37:15;;;;;;;43.70;28.30;;;4.60;99.90;;;;;;5094645;28;20209;-50
2021/03/03 01:39:41;;;;;;;40.90;28.03;;;4.60;99.90;;;;;;5094942;28;20257;-53
2021/03/03 01:42:06;;;;;;;43.53;29.13;;;4.60;99.90;;;;;;5076199;28;20182;-47
2021/03/03 01:44:32;;;;;;;41.00;27.57;;;4.50;99.90;;;;;;5074284;28;20200;-51
2021/03/03 01:46:57;;;;;;;41.37;27.77;;;4.60;99.90;;;;;;5074627;28;20236;-49
2021/03/03 01:49:23;;;;;;;39.53;27.73;;;4.60;99.90;;;;;;5074977;28;20175;-51
2021/03/03 01:51:48;;;;;;;42.67;27.03;;;4.60;99.90;;;;;;5088536;28;20177;-48
2021/03/03 01:54:14;;;;;;;41.27;27.43;;;4.50;99.90;;;;;;5094525;28;20182;-50
2021/03/03 01:56:40;;;;;;;43.13;28.13;;;4.50;99.90;;;;;;5093036;28;20599;-52
2021/03/03 01:59:05;;;;;;;43.50;28.37;;;4.50;99.90;;;;;;5094863;28;20197;-52
2021/03/03 02:01:31;;;;;;;41.50;27.63;;;4.50;99.90;;;;;;5092589;28;20174;-55
2021/03/03 02:03:57;;;;;;;38.27;26.60;;;4.40;99.90;;;;;;5094402;28;20178;-52
2021/03/03 02:06:29;;;;;;;41.43;28.00;;;4.40;99.90;;;;;;5084730;28;20203;-49
2021/03/03 02:09:06;;;;;;;38.97;27.50;;;4.40;99.90;;;;;;5074213;28;20400;-51
2021/03/03 02:11:41;;;;;;;41.67;28.00;;;4.30;99.90;;;;;;5075259;28;20420;-52
2021/03/03 02:14:11;;;;;;;42.43;28.17;;;4.20;99.90;;;;;;5074587;28;20185;-51
2021/03/03 02:16:37;;;;;;;43.10;28.83;;;4.10;99.90;;;;;;5075061;28;20476;-56
2021/03/03 02:19:05;;;;;;;40.10;27.70;;;4.10;99.90;;;;;;5074123;28;20409;-53
2021/03/03 02:21:39;;;;;;;42.67;27.80;;;3.90;99.90;;;;;;5082884;28;20268;-49
2021/03/03 02:24:13;;;;;;;39.43;25.77;;;4.00;99.90;;;;;;5094683;28;20389;-49
2021/03/03 02:26:41;;;;;;;40.50;27.10;;;4.00;99.90;;;;;;5083391;28;20472;-49
2021/03/03 02:29:10;;;;;;;43.30;27.33;;;3.90;99.90;;;;;;5074082;28;20413;-55
2021/03/03 02:31:38;;;;;;;39.63;26.50;;;3.90;99.90;;;;;;5081973;28;20431;-54
2021/03/03 02:34:06;;;;;;;44.47;27.60;;;3.80;99.90;;;;;;5094277;28;20880;-52
2021/03/03 02:36:32;;;;;;;41.23;27.00;;;3.90;99.90;;;;;;5093512;28;20459;-50
2021/03/03 02:39:00;;;;;;;40.50;26.50;;;3.80;99.90;;;;;;5086859;28;20178;-49
2021/03/03 02:41:27;;;;;;;40.50;27.60;;;3.90;99.90;;;;;;5074630;28;20191;-50
2021/03/03 02:43:53;;;;;;;38.93;26.47;;;3.90;99.90;;;;;;5079124;28;20840;-50
2021/03/03 02:46:19;;;;;;;38.67;24.93;;;3.90;99.90;;;;;;5094156;28;20771;-48
2021/03/03 02:48:47;;;;;;;37.47;25.67;;;3.90;99.90;;;;;;5094017;28;20633;-55
2021/03/03 02:51:13;;;;;;;35.90;24.73;;;3.90;99.90;;;;;;5077910;28;20414;-54
2021/03/03 02:53:42;;;;;;;37.47;24.97;;;3.90;99.90;;;;;;5080067;28;20512;-49
2021/03/03 02:56:09;;;;;;;33.53;24.80;;;3.80;99.90;;;;;;5098328;28;20240;-47
2021/03/03 02:58:35;;;;;;;37.57;24.47;;;3.70;99.90;;;;;;5096102;28;20807;-48
2021/03/03 03:01:02;;;;;;;34.93;23.03;;;3.80;99.90;;;;;;5077693;28;20872;-48
2021/03/03 03:03:33;;;;;;;35.47;22.90;;;3.70;99.90;;;;;;5078267;28;20182;-55
2021/03/03 03:06:00;;;;;;;34.77;23.17;;;3.70;99.90;;;;;;5097126;28;20522;-52
2021/03/03 03:08:28;;;;;;;35.27;22.90;;;3.60;99.90;;;;;;5097440;28;20899;-51
2021/03/03 03:10:54;;;;;;;35.60;24.43;;;3.60;99.90;;;;;;5096641;28;20443;-49
2021/03/03 03:13:21;;;;;;;36.63;24.83;;;3.60;99.90;;;;;;5098008;28;20415;-49
2021/03/03 03:15:49;;;;;;;38.90;25.50;;;3.70;99.90;;;;;;5080506;28;20519;-51
2021/03/03 03:18:18;;;;;;;35.67;25.53;;;3.60;99.90;;;;;;5090217;28;21049;-48
2021/03/03 03:20:45;;;;;;;34.27;23.17;;;3.60;99.90;;;;;;5097755;28;20481;-50
2021/03/03 03:23:11;;;;;;;35.30;24.47;;;3.50;99.90;;;;;;5081488;28;20927;-55
2021/03/03 03:25:39;;;;;;;38.57;25.57;;;3.50;99.90;;;;;;5087162;28;20959;-51
2021/03/03 03:28:05;;;;;;;35.83;25.27;;;3.40;99.90;;;;;;5097627;28;20890;-47
2021/03/03 03:30:31;;;;;;;36.83;24.77;;;3.40;99.90;;;;;;5096140;28;20434;-50
2021/03/03 03:32:58;;;;;;;36.90;24.80;;;3.40;99.90;;;;;;5082915;28;20420;-51
2021/03/03 03:35:26;;;;;;;35.17;23.60;;;3.30;99.90;;;;;;5085233;28;20212;-50
2021/03/03 03:37:52;;;;;;;38.87;24.53;;;3.30;99.90;;;;;;5077457;28;20459;-49
2021/03/03 03:40:18;;;;;;;34.90;23.53;;;3.20;99.90;;;;;;5089068;28;20439;-53
2021/03/03 03:42:45;;;;;;;33.70;22.47;;;3.10;99.90;;;;;;5097011;28;20442;-50
2021/03/03 03:45:11;;;;;;;32.07;22.70;;;3.00;99.90;;;;;;5084607;28;20213;-49
2021/03/03 03:47:37;;;;;;;34.70;22.77;;;3.00;99.90;;;;;;5077449;28;20428;-53
2021/03/03 03:50:05;;;;;;;34.57;22.90;;;3.00;99.90;;;;;;5078219;28;20795;-53
2021/03/03 03:52:31;;;;;;;34.40;23.80;;;3.00;99.90;;;;;;5076440;28;20413;-51
2021/03/03 03:54:57;;;;;;;32.60;22.80;;;2.90;99.90;;;;;;5085234;28;20451;-51
2021/03/03 03:57:23;;;;;;;33.57;22.43;;;2.90;99.90;;;;;;5096699;28;20228;-50
2021/03/03 03:59:49;;;;;;;32.27;21.47;;;2.80;99.90;;;;;;5088978;28;20565;-51
2021/03/03 04:02:16;;;;;;;33.53;22.33;;;2.80;99.90;;;;;;5076206;28;20401;-50
2021/03/03 04:04:42;;;;;;;31.47;22.00;;;2.80;99.90;;;;;;5088682;28;20435;-51
2021/03/03 04:07:08;;;;;;;30.07;21.30;;;2.80;99.90;;;;;;5092682;28;20511;-50
2021/03/03 04:09:33;;;;;;;33.33;22.37;;;2.80;99.90;;;;;;5076114;28;20431;-51
2021/03/03 04:12:00;;;;;;;30.27;21.37;;;2.80;99.90;;;;;;5089197;28;20166;-48
2021/03/03 04:14:26;;;;;;;30.70;21.47;;;2.90;99.90;;;;;;5096675;28;20644;-52
2021/03/03 04:16:52;;;;;;;28.90;20.10;;;2.90;99.90;;;;;;5094830;28;20451;-49
2021/03/03 04:19:18;;;;;;;29.97;20.40;;;2.80;99.90;;;;;;5096638;28;20166;-51
2021/03/03 04:21:44;;;;;;;32.00;19.97;;;2.80;99.90;;;;;;5095812;28;20180;-50
2021/03/03 04:24:09;;;;;;;24.47;17.03;;;2.80;99.90;;;;;;5096209;28;20198;-50
2021/03/03 04:26:35;;;;;;;22.90;17.07;;;2.70;99.90;;;;;;5091291;28;20472;-47
2021/03/03 04:29:00;;;;;;;26.90;18.70;;;2.70;99.90;;;;;;5076368;28;20215;-51
2021/03/03 04:31:26;;;;;;;26.60;18.67;;;2.70;99.90;;;;;;5082219;28;20572;-56
2021/03/03 04:33:51;;;;;;;26.53;18.97;;;2.70;99.90;;;;;;5082829;28;20179;-56
2021/03/03 04:36:17;;;;;;;28.37;19.63;;;2.70;99.90;;;;;;5076065;28;20191;-48
2021/03/03 04:38:43;;;;;;;26.70;18.93;;;2.70;99.90;;;;;;5075608;28;20170;-51
2021/03/03 04:41:08;;;;;;;26.53;20.17;;;2.50;99.90;;;;;;5089223;28;20533;-49
2021/03/03 04:43:34;;;;;;;25.57;17.80;;;2.60;99.90;;;;;;5094295;28;20166;-48
2021/03/03 04:46:00;;;;;;;27.13;19.37;;;2.60;99.90;;;;;;5078126;28;20187;-49
2021/03/03 04:48:25;;;;;;;23.97;17.13;;;2.60;99.90;;;;;;5075673;28;20567;-54
2021/03/03 04:50:51;;;;;;;22.90;16.63;;;2.50;99.90;;;;;;5075512;28;20206;-51
2021/03/03 04:53:18;;;;;;;24.17;18.03;;;2.50;99.90;;;;;;5075590;28;20166;-49
2021/03/03 04:55:44;;;;;;;26.70;17.97;;;2.50;99.90;;;;;;5076896;28;20229;-49
2021/03/03 04:58:09;;;;;;;23.90;17.73;;;2.60;99.90;;;;;;5075254;28;20484;-51
2021/03/03 05:00:35;;;;;;;23.77;17.60;;;2.50;99.90;;;;;;5092540;28;20178;-50
2021/03/03 05:03:00;;;;;;;25.13;17.80;;;2.50;99.90;;;;;;5095272;28;20177;-48
2021/03/03 05:05:26;;;;;;;23.43;17.47;;;2.50;99.90;;;;;;5093504;28;20734;-52
2021/03/03 05:07:51;;;;;;;24.43;18.27;;;2.50;99.90;;;;;;5095423;28;20174;-52
2021/03/03 05:10:17;;;;;;;23.77;17.03;;;2.50;99.90;;;;;;5094221;28;20513;-50
2021/03/03 05:12:43;;;;;;;23.07;17.43;;;2.50;99.90;;;;;;5082960;28;20527;-53
2021/03/03 05:15:09;;;;;;;22.33;16.13;;;2.50;99.90;;;;;;5074851;28;20221;-51
2021/03/03 05:17:34;;;;;;;25.30;17.63;;;2.50;99.90;;;;;;5084626;28;20225;-48
2021/03/03 05:20:00;;;;;;;23.57;16.10;;;2.50;99.90;;;;;;5095294;28;20508;-49
2021/03/03 05:22:25;;;;;;;24.07;17.13;;;2.50;99.90;;;;;;5086577;28;20175;-51
2021/03/03 05:24:51;;;;;;;25.30;17.00;;;2.30;99.90;;;;;;5074714;28;20194;-53
2021/03/03 05:27:16;;;;;;;23.67;17.23;;;2.20;99.90;;;;;;5075943;28;20183;-50
2021/03/03 05:29:42;;;;;;;23.23;16.43;;;2.30;99.90;;;;;;5074722;28;20202;-48
2021/03/03 05:32:08;;;;;;;20.43;15.70;;;2.20;99.90;;;;;;5087818;28;20190;-49
2021/03/03 05:34:34;;;;;;;20.33;15.60;;;2.20;99.90;;;;;;5094662;28;20630;-48
2021/03/03 05:36:59;;;;;;;23.33;16.63;;;2.20;99.90;;;;;;5093299;28;20504;-49
2021/03/03 05:39:25;;;;;;;21.43;16.40;;;2.00;99.90;;;;;;5094826;28;20738;-53
2021/03/03 05:41:50;;;;;;;19.50;15.67;;;2.00;99.90;;;;;;5085896;28;20689;-49
2021/03/03 05:44:16;;;;;;;22.83;17.13;;;1.90;99.90;;;;;;5076154;28;20170;-50
2021/03/03 05:46:45;;;;;;;24.70;18.30;;;1.80;99.90;;;;;;5072915;28;20206;-50
2021/03/03 05:49:15;;;;;;;24.60;19.13;;;1.80;99.90;;;;;;5075477;28;20421;-50
2021/03/03 05:51:41;;;;;;;26.17;19.67;;;1.70;99.90;;;;;;5074457;28;20413;-52
2021/03/03 05:54:08;;;;;;;26.13;19.07;;;1.70;99.90;;;;;;5075359;28;20421;-53
2021/03/03 05:56:34;;;;;;;26.03;19.47;;;1.70;99.90;;;;;;5074380;28;20912;-50
2021/03/03 05:59:00;;;;;;;24.53;19.10;;;1.70;99.90;;;;;;5076215;28;20425;-47
2021/03/03 06:01:26;;;;;;;20.97;16.23;;;1.70;99.90;;;;;;5074666;28;20193;-49
2021/03/03 06:03:52;;;;;;;22.47;16.93;;;1.70;99.90;;;;;;5075739;28;20441;-50
2021/03/03 06:06:18;;;;;;;24.43;17.70;;;1.80;99.90;;;;;;5093079;28;20201;-52
2021/03/03 06:08:44;;;;;;;23.00;17.47;;;1.80;99.90;;;;;;5074068;28;20407;-50
2021/03/03 06:11:09;;;;;;;23.03;18.17;;;1.80;99.90;;;;;;5073756;28;20189;-48
2021/03/03 06:13:35;;;;;;;25.70;18.90;;;1.70;99.90;;;;;;5093930;28;20188;-52
2021/03/03 06:16:01;;;;;;;24.10;19.07;;;1.70;99.90;;;;;;5094122;28;20208;-52
2021/03/03 06:18:26;;;;;;;26.27;18.73;;;1.70;99.90;;;;;;5092200;28;20244;-49
2021/03/03 06:20:54;;;;;;;24.90;18.77;;;1.70;99.90;;;;;;5093854;28;20170;-52
2021/03/03 06:23:30;;;;;;;25.70;18.70;;;1.60;99.90;;;;;;5076876;28;20170;-50
2021/03/03 06:25:56;;;;;;;21.63;17.03;;;1.60;99.90;;;;;;5073641;28;20433;-50
2021/03/03 06:28:41;;;;;;;23.33;17.77;;;1.60;99.90;;;;;;5081342;28;20462;-53
2021/03/03 06:31:33;;;;;;;18.70;15.17;;;1.70;99.90;;;;;;5082194;28;20542;-52
2021/03/03 06:34:24;;;;;;;18.50;16.50;;;1.80;99.90;;;;;;5080723;28;20436;-50
2021/03/03 06:36:55;;;;;;;19.17;15.53;;;2.00;99.90;;;;;;5073885;28;20216;-48
2021/03/03 06:39:35;;;;;;;21.90;16.73;;;2.00;99.90;;;;;;5074002;28;20397;-53
2021/03/03 06:42:10;;;;;;;20.47;16.13;;;1.90;99.90;;;;;;5073538;28;20428;-52
2021/03/03 06:44:52;;;;;;;21.83;16.97;;;1.90;99.90;;;;;;5073633;28;20385;-52
2021/03/03 06:47:19;;;;;;;21.77;16.83;;;2.00;99.90;;;;;;5082048;28;20408;-55
2021/03/03 06:49:48;;;;;;;88.80;21.27;;;2.10;99.90;;;;;;5074017;28;20487;-52
2021/03/03 06:52:14;;;;;;;25.90;17.77;;;2.10;99.90;;;;;;5090918;28;20498;-50
2021/03/03 06:54:40;;;;;;;48.53;20.27;;;2.10;99.90;;;;;;5092151;28;20467;-51
2021/03/03 06:57:13;;;;;;;23.93;18.03;;;2.00;99.90;;;;;;5093146;28;20211;-49
2021/03/03 06:59:43;;;;;;;93.50;21.13;;;1.90;99.90;;;;;;5080457;28;20200;-58
2021/03/03 07:02:15;;;;;;;24.00;18.30;;;1.90;99.90;;;;;;5084788;28;20423;-54
2021/03/03 07:04:42;;;;;;;27.30;19.97;;;1.90;99.90;;;;;;5093452;28;20904;-53
2021/03/03 07:07:19;;;;;;;25.87;19.33;;;2.00;99.90;;;;;;5081698;28;20772;-52
2021/03/03 07:09:58;;;;;;;26.03;18.17;;;2.30;99.90;;;;;;5073233;28;20431;-52
2021/03/03 07:12:26;;;;;;;24.70;18.20;;;2.30;99.90;;;;;;5072981;28;20447;-52
2021/03/03 07:15:09;;;;;;;24.30;17.97;;;2.50;99.90;;;;;;5073261;28;20433;-50
2021/03/03 07:17:39;;;;;;;25.80;18.97;;;2.70;99.90;;;;;;5073461;28;20448;-54
2021/03/03 07:20:07;;;;;;;23.27;18.20;;;3.00;99.90;;;;;;5076831;28;20524;-51
2021/03/03 07:22:37;;;;;;;22.50;19.48;;;3.20;99.90;;;;;;5084042;28;20448;-59
2021/03/03 07:25:11;;;;;;;24.00;19.33;;;3.40;99.90;;;;;;5086685;28;20194;-52
2021/03/03 07:27:39;;;;;;;24.77;19.17;;;3.60;99.90;;;;;;5092639;28;20499;-51
2021/03/03 07:30:12;;;;;;;22.43;18.10;;;3.60;99.90;;;;;;5091352;28;20191;-54
2021/03/03 07:32:38;;;;;;;69.67;21.77;;;3.50;99.90;;;;;;5091621;28;20435;-51
2021/03/03 07:35:06;;;;;;;41.33;21.17;;;3.60;99.90;;;;;;5094666;28;21009;-55
2021/03/03 07:37:37;;;;;;;226.20;28.27;;;3.60;99.90;;;;;;5094512;28;20458;-53
2021/03/03 07:40:08;;;;;;;26.77;19.47;;;3.50;99.90;;;;;;5094409;28;20396;-57
2021/03/03 07:42:35;;;;;;;25.40;20.00;;;3.40;99.90;;;;;;5094033;28;20488;-50
2021/03/03 07:45:08;;;;;;;38.53;20.53;;;3.40;99.90;;;;;;5094435;28;20424;-50
2021/03/03 07:47:38;;;;;;;71.33;22.30;;;3.40;99.90;;;;;;5096519;28;20395;-55
2021/03/03 07:50:12;;;;;;;108.73;23.77;;;3.40;99.90;;;;;;5094620;28;20388;-57
2021/03/03 07:52:41;;;;;;;101.97;25.30;;;3.50;99.90;;;;;;5095450;28;20875;-55
2021/03/03 07:55:08;;;;;;;23.53;18.83;;;3.60;99.90;;;;;;5095608;28;20432;-58
2021/03/03 07:57:35;;;;;;;23.77;18.17;;;3.70;99.90;;;;;;5097282;28;20218;-55
2021/03/03 08:00:08;;;;;;;23.27;18.63;;;4.00;99.90;;;;;;5096568;28;20182;-56
2021/03/03 08:02:48;;;;;;;20.37;17.10;;;4.20;99.90;;;;;;5096804;28;20237;-56
2021/03/03 08:05:39;;;;;;;24.27;19.13;;;4.30;99.90;;;;;;5096642;28;20507;-52
2021/03/03 08:08:08;;;;;;;68.13;21.17;;;4.30;99.90;;;;;;5096529;28;20165;-50
2021/03/03 08:10:38;;;;;;;23.40;17.67;;;4.50;99.90;;;;;;5095300;28;20576;-56
2021/03/03 08:13:05;;;;;;;66.20;20.87;;;4.60;99.90;;;;;;5096492;28;20208;-52
2021/03/03 08:15:41;;;;;;;35.57;18.93;;;4.50;99.90;;;;;;5096188;28;20197;-51
2021/03/03 08:18:29;;;;;;;31.57;18.10;;;4.70;99.90;;;;;;5096537;28;20228;-55
2021/03/03 08:21:21;;;;;;;98.50;22.43;;;4.90;99.90;;;;;;5095915;28;20230;-52
2021/03/03 08:23:49;;;;;;;38.87;19.60;;;4.80;99.90;;;;;;5096046;28;20181;-49
2021/03/03 08:26:17;;;;;;;24.10;19.33;;;4.90;99.90;;;;;;5095781;28;20197;-54
2021/03/03 08:28:49;;;;;;;25.83;19.90;;;5.20;99.90;;;;;;5095666;28;20192;-56
2021/03/03 08:31:15;;;;;;;23.63;18.50;;;5.40;99.90;;;;;;5095382;28;20189;-50
2021/03/03 08:33:44;;;;;;;24.53;18.70;;;5.60;99.90;;;;;;5096567;28;20687;-54
2021/03/03 08:36:31;;;;;;;24.67;19.20;;;5.80;99.90;;;;;;5095740;28;20189;-50
2021/03/03 08:38:57;;;;;;;22.60;18.17;;;6.10;99.90;;;;;;5095867;28;20579;-53
2021/03/03 08:41:25;;;;;;;25.40;19.17;;;6.40;99.90;;;;;;5095027;28;20668;-56
2021/03/03 08:44:11;;;;;;;25.90;18.93;;;6.40;99.90;;;;;;5095407;28;20178;-49
2021/03/03 08:46:42;;;;;;;24.83;19.13;;;6.30;99.90;;;;;;5095416;28;20201;-47
2021/03/03 08:49:08;;;;;;;23.87;20.17;;;6.20;99.90;;;;;;5095975;28;20707;-54
2021/03/03 08:51:36;;;;;;;24.70;19.50;;;6.30;99.90;;;;;;5094153;28;20197;-59
2021/03/03 08:54:10;;;;;;;26.00;20.47;;;6.60;99.90;;;;;;5095491;28;20166;-49
2021/03/03 08:56:51;;;;;;;25.60;20.07;;;6.70;99.90;;;;;;5095058;28;20208;-47
2021/03/03 08:59:29;;;;;;;25.77;19.20;;;6.70;99.90;;;;;;5095888;28;20193;-50
2021/03/03 09:02:02;;;;;;;24.40;19.37;;;6.60;99.90;;;;;;5095231;28;20617;-54
2021/03/03 09:04:30;;;;;;;24.43;19.83;;;6.70;99.90;;;;;;5096270;28;20244;-58
2021/03/03 09:06:58;;;;;;;26.47;20.50;;;6.90;99.90;;;;;;5095278;28;20279;-59
2021/03/03 09:09:25;;;;;;;26.10;20.80;;;7.20;99.90;;;;;;5096036;28;20198;-52
2021/03/03 09:12:20;;;;;;;25.60;21.17;;;7.50;99.90;;;;;;5094931;28;20177;-49
2021/03/03 09:14:47;;;;;;;25.37;20.13;;;7.60;99.90;;;;;;5072245;28;20276;-50
2021/03/03 09:17:16;;;;;;;24.87;20.20;;;7.60;99.90;;;;;;5093717;28;20297;-52
2021/03/03 09:19:42;;;;;;;26.90;21.73;;;7.70;99.90;;;;;;5095200;28;20169;-50
2021/03/03 09:22:14;;;;;;;27.07;21.43;;;7.50;99.90;;;;;;5094610;28;20592;-57
2021/03/03 09:24:40;;;;;;;26.93;20.30;;;7.40;99.90;;;;;;5094677;28;20186;-51
2021/03/03 09:27:09;;;;;;;25.27;20.07;;;7.40;99.90;;;;;;5094534;28;20190;-56
2021/03/03 09:29:37;;;;;;;25.30;20.07;;;7.70;99.90;;;;;;5094190;28;20178;-49
2021/03/03 09:32:11;;;;;;;24.90;19.73;;;7.90;99.90;;;;;;5093317;28;20182;-55
2021/03/03 09:34:46;;;;;;;24.73;21.00;;;8.10;99.90;;;;;;5094729;28;20204;-52
2021/03/03 09:37:11;;;;;;;25.13;20.80;;;8.50;99.90;;;;;;5094895;28;20197;-54
2021/03/03 09:39:37;;;;;;;28.40;21.67;;;8.40;99.90;;;;;;5093928;28;20166;-49
2021/03/03 09:42:06;;;;;;;28.53;22.57;;;8.70;99.90;;;;;;5093088;28;20190;-56
2021/03/03 09:44:50;;;;;;;26.27;20.90;;;8.80;99.90;;;;;;5093579;28;20645;-48
2021/03/03 09:47:22;;;;;;;33.33;23.43;;;9.40;99.90;;;;;;5093956;28;20176;-53
2021/03/03 09:49:48;;;;;;;30.17;23.10;;;9.90;99.90;;;;;;5094209;28;20169;-51
2021/03/03 09:52:13;;;;;;;26.83;22.27;;;11.00;99.90;;;;;;5094285;28;20185;-48
2021/03/03 09:54:39;;;;;;;24.83;21.87;;;11.80;99.90;;;;;;5094091;28;20201;-54
2021/03/03 09:57:19;;;;;;;29.73;22.07;;;12.50;99.90;;;;;;5094729;28;20202;-55
2021/03/03 09:59:46;;;;;;;25.13;21.30;;;12.80;99.90;;;;;;5093336;28;20195;-52
2021/03/03 10:02:15;;;;;;;26.13;22.10;;;13.50;99.90;;;;;;5093372;28;20196;-48
2021/03/03 10:04:41;;;;;;;24.23;21.63;;;14.10;99.90;;;;;;5093653;28;20201;-48
2021/03/03 10:07:16;;;;;;;24.53;20.53;;;14.70;98.80;;;;;;5093932;28;20170;-56
2021/03/03 10:09:43;;;;;;;26.03;23.00;;;15.00;97.50;;;;;;5093881;28;20192;-53
2021/03/03 10:12:12;;;;;;;26.43;22.60;;;14.80;97.20;;;;;;5094199;28;20178;-54
2021/03/03 10:14:59;;;;;;;27.00;23.80;;;14.70;97.20;;;;;;5093526;28;20179;-48
2021/03/03 10:17:30;;;;;;;28.23;23.57;;;14.10;97.60;;;;;;5093113;28;20210;-54
2021/03/03 10:19:56;;;;;;;26.67;21.97;;;13.50;98.30;;;;;;5092879;28;20189;-50
2021/03/03 10:22:22;;;;;;;28.17;22.33;;;13.00;99.30;;;;;;5094120;28;20518;-49
2021/03/03 10:25:09;;;;;;;27.93;23.77;;;12.60;99.90;;;;;;5090176;28;20216;-56
2021/03/03 10:27:40;;;;;;;27.87;24.17;;;12.40;99.90;;;;;;5081578;28;20311;-50
2021/03/03 10:30:27;;;;;;;30.07;24.47;;;12.20;99.90;;;;;;5090113;28;20187;-54
2021/03/03 10:32:53;;;;;;;26.93;22.77;;;12.20;99.60;;;;;;5085887;28;20178;-50
2021/03/03 10:35:23;;;;;;;25.40;21.63;;;13.10;99.90;;;;;;5093358;28;20197;-49
2021/03/03 10:37:50;;;;;;;24.67;22.00;;;14.90;97.90;;;;;;5094061;28;20301;-52
2021/03/03 10:40:18;;;;;;;27.27;23.03;;;16.50;94.00;;;;;;5093119;28;20647;-53
2021/03/03 10:42:44;;;;;;;23.83;21.10;;;18.00;91.10;;;;;;5093114;28;20194;-50
2021/03/03 10:45:28;;;;;;;26.20;22.50;;;18.80;90.00;;;;;;5093892;28;20195;-53
2021/03/03 10:47:53;;;;;;;23.73;21.23;;;18.50;88.10;;;;;;5093298;28;20722;-53
2021/03/03 10:50:20;;;;;;;25.33;22.63;;;18.60;87.40;;;;;;5094006;28;20198;-56
2021/03/03 10:52:56;;;;;;;25.43;22.70;;;18.90;85.50;;;;;;5093950;28;20197;-50
2021/03/03 10:55:25;;;;;;;25.63;22.83;;;19.60;84.60;;;;;;5093110;28;20201;-50
2021/03/03 10:58:04;;;;;;;25.03;22.33;;;19.50;82.70;;;;;;5093596;28;20206;-54
2021/03/03 11:00:30;;;;;;;23.27;20.83;;;19.30;81.80;;;;;;5093338;28;20170;-51
2021/03/03 11:03:00;;;;;;;26.07;23.27;;;19.10;84.10;;;;;;5093320;28;20174;-55
2021/03/03 11:05:25;;;;;;;24.40;21.77;;;18.50;82.80;;;;;;5093406;28;20185;-54
2021/03/03 11:07:51;;;;;;;25.23;22.57;;;18.70;83.60;;;;;;5094764;28;20174;-51
2021/03/03 11:10:17;;;;;;;24.00;21.30;;;18.60;82.30;;;;;;5097559;28;20236;-58
2021/03/03 11:12:42;;;;;;;24.10;21.53;;;17.70;84.50;;;;;;5097381;28;20177;-53
2021/03/03 11:15:09;;;;;;;24.23;21.47;;;17.00;86.50;;;;;;5097351;28;20228;-57
2021/03/03 11:17:34;;;;;;;25.90;23.10;;;16.20;88.80;;;;;;5087254;28;20213;-50
2021/03/03 11:20:00;;;;;;;27.07;21.63;;;15.40;90.40;;;;;;5076158;28;20175;-53
2021/03/03 11:22:25;;;;;;;26.50;22.37;;;15.00;91.10;;;;;;5076662;28;20175;-55
2021/03/03 11:24:51;;;;;;;24.43;21.20;;;14.80;91.10;;;;;;5076784;28;20190;-54
2021/03/03 11:27:16;;;;;;;26.13;22.43;;;14.40;92.30;;;;;;5077004;28;20205;-57
2021/03/03 11:29:42;;;;;;;25.93;21.53;;;14.00;93.10;;;;;;5077093;28;20265;-50
2021/03/03 11:32:07;;;;;;;25.53;21.97;;;13.70;94.40;;;;;;5076679;28;20259;-53
2021/03/03 11:34:33;;;;;;;25.63;21.23;;;13.20;95.30;;;;;;5077286;28;20233;-49
2021/03/03 11:37:00;;;;;;;24.63;20.20;;;13.20;96.70;;;;;;5077241;28;20216;-49
2021/03/03 11:39:25;;;;;;;24.63;21.23;;;13.90;96.20;;;;;;5077003;28;20174;-50
2021/03/03 11:41:51;;;;;;;25.57;20.97;;;15.00;94.40;;;;;;5076528;28;20178;-52
2021/03/03 11:44:16;;;;;;;26.87;20.83;;;15.90;92.40;;;;;;5077252;28;20206;-49
2021/03/03 11:46:42;;;;;;;23.57;20.47;;;16.60;91.50;;;;;;5076885;28;20538;-58
2021/03/03 11:49:08;;;;;;;23.23;19.23;;;17.30;91.10;;;;;;5077212;28;20173;-52
2021/03/03 11:51:33;;;;;;;22.27;19.97;;;18.50;89.80;;;;;;5076844;28;20531;-55
2021/03/03 11:53:59;;;;;;;22.27;19.98;;;19.60;87.20;;;;;;5076460;28;20236;-55
2021/03/03 11:56:24;;;;;;;19.27;17.13;;;21.30;82.50;;;;;;5076340;28;20197;-57
2021/03/03 11:58:50;;;;;;;22.60;19.38;;;23.00;76.20;;;;;;5076782;28;20289;-50
2021/03/03 12:01:15;;;;;;;20.98;18.88;;;22.20;71.80;;;;;;5076434;28;20178;-50
2021/03/03 12:03:41;;;;;;;22.05;19.67;;;21.90;73.20;;;;;;5076907;28;20171;-54
2021/03/03 12:06:06;;;;;;;21.08;18.98;;;21.70;71.20;;;;;;5076764;28;20713;-53
2021/03/03 12:08:32;;;;;;;21.05;18.95;;;21.00;73.70;;;;;;5076538;28;20192;-54
2021/03/03 12:10:57;;;;;;;21.13;19.10;;;21.20;72.00;;;;;;5075931;28;20649;-58
2021/03/03 12:13:23;;;;;;;20.20;18.10;;;21.30;70.00;;;;;;5076118;28;20171;-54
2021/03/03 12:15:48;;;;;;;20.98;18.83;;;20.90;69.80;;;;;;5076091;28;20281;-58
2021/03/03 12:18:14;;;;;;;22.77;19.67;;;20.10;70.60;;;;;;5075929;28;20249;-58
2021/03/03 12:20:40;;;;;;;21.10;18.80;;;19.40;72.30;;;;;;5075033;28;20178;-52
2021/03/03 12:23:05;;;;;;;22.27;19.87;;;19.20;73.30;;;;;;5076107;28;20633;-56
2021/03/03 12:25:31;;;;;;;23.37;19.83;;;18.80;75.20;;;;;;5075996;28;20187;-55
2021/03/03 12:27:57;;;;;;;21.30;19.10;;;18.60;76.40;;;;;;5076401;28;20166;-57
2021/03/03 12:30:23;;;;;;;21.70;19.40;;;18.70;76.30;;;;;;5076648;28;20183;-53
2021/03/03 12:32:50;;;;;;;20.97;18.87;;;18.80;75.40;;;;;;5075776;28;20174;-51
2021/03/03 12:35:16;;;;;;;22.20;19.33;;;19.60;75.00;;;;;;5076165;28;20190;-51
2021/03/03 12:37:41;;;;;;;22.83;18.70;;;20.00;74.60;;;;;;5076317;28;20239;-53
2021/03/03 12:40:07;;;;;;;21.30;18.93;;;19.80;74.20;;;;;;5075666;28;20178;-57